sensor_id;sensor_type;location;lat;lon;timestamp;P1;durP1;ratioP1;P2;durP2;ratioP2
26702;SDS011;14316;51.074;3.704;2023-01-16T00:01:17;15.27;;;6.30;;
26702;SDS011;14316;51.074;3.704;2023-01-16T00:03:43;6.45;;;2.65;;
26702;SDS011;14316;51.074;3.704;2023-01-16T00:06:09;4.38;;;2.03;;
26702;SDS011;14316;51.074;3.704;2023-01-16T00:08:35;7.47;;;2.45;;
26702;SDS011;14316;51.074;3.704;2023-01-16T00:11:01;5.40;;;2.42;;
26702;SDS011;14316;51.074;3.704;2023-01-16T00:13:27;7.07;;;2.40;;
26702;SDS011;14316;51.074;3.704;2023-01-16T00:15:52;7.55;;;2.10;;
26702;SDS011;14316;51.074;3.704;2023-01-16T00:18:18;5.32;;;1.90;;
26702;SDS011;14316;51.074;3.704;2023-01-16T00:20:45;8.73;;;2.28;;
26702;SDS011;14316;51.074;3.704;2023-01-16T00:23:12;5.60;;;1.58;;
26702;SDS011;14316;51.074;3.704;2023-01-16T00:25:41;7.75;;;2.65;;
26702;SDS011;14316;51.074;3.704;2023-01-16T00:28:08;4.63;;;1.48;;
26702;SDS011;14316;51.074;3.704;2023-01-16T00:30:35;6.93;;;1.92;;
26702;SDS011;14316;51.074;3.704;2023-01-16T00:33:02;6.15;;;1.60;;
26702;SDS011;14316;51.074;3.704;2023-01-16T00:35:28;6.20;;;1.75;;
26702;SDS011;14316;51.074;3.704;2023-01-16T00:37:55;5.40;;;1.70;;
26702;SDS011;14316;51.074;3.704;2023-01-16T00:40:21;4.18;;;1.63;;
26702;SDS011;14316;51.074;3.704;2023-01-16T00:42:48;5.43;;;1.77;;
26702;SDS011;14316;51.074;3.704;2023-01-16T00:45:13;4.78;;;1.85;;
26702;SDS011;14316;51.074;3.704;2023-01-16T00:47:40;5.78;;;2.05;;
26702;SDS011;14316;51.074;3.704;2023-01-16T00:50:06;6.55;;;2.20;;
26702;SDS011;14316;51.074;3.704;2023-01-16T00:52:33;10.45;;;2.80;;
26702;SDS011;14316;51.074;3.704;2023-01-16T00:54:59;7.32;;;2.42;;
26702;SDS011;14316;51.074;3.704;2023-01-16T00:57:25;6.25;;;2.92;;
26702;SDS011;14316;51.074;3.704;2023-01-16T00:59:51;7.03;;;3.33;;
26702;SDS011;14316;51.074;3.704;2023-01-16T01:02:17;6.22;;;3.00;;
26702;SDS011;14316;51.074;3.704;2023-01-16T01:04:44;9.50;;;3.00;;
26702;SDS011;14316;51.074;3.704;2023-01-16T01:07:10;7.75;;;2.97;;
26702;SDS011;14316;51.074;3.704;2023-01-16T01:09:36;6.82;;;2.80;;
26702;SDS011;14316;51.074;3.704;2023-01-16T01:12:01;6.00;;;3.17;;
26702;SDS011;14316;51.074;3.704;2023-01-16T01:14:27;7.28;;;2.72;;
26702;SDS011;14316;51.074;3.704;2023-01-16T01:16:54;9.18;;;2.97;;
26702;SDS011;14316;51.074;3.704;2023-01-16T01:19:20;11.60;;;2.50;;
26702;SDS011;14316;51.074;3.704;2023-01-16T01:21:45;5.30;;;2.08;;
26702;SDS011;14316;51.074;3.704;2023-01-16T01:24:12;5.28;;;1.88;;
26702;SDS011;14316;51.074;3.704;2023-01-16T01:26:38;7.30;;;2.00;;
26702;SDS011;14316;51.074;3.704;2023-01-16T01:29:04;5.82;;;1.98;;
26702;SDS011;14316;51.074;3.704;2023-01-16T01:31:30;5.28;;;2.03;;
26702;SDS011;14316;51.074;3.704;2023-01-16T01:33:56;5.85;;;1.50;;
26702;SDS011;14316;51.074;3.704;2023-01-16T01:36:22;7.72;;;1.90;;
26702;SDS011;14316;51.074;3.704;2023-01-16T01:38:48;4.68;;;1.95;;
26702;SDS011;14316;51.074;3.704;2023-01-16T01:41:16;5.03;;;1.90;;
26702;SDS011;14316;51.074;3.704;2023-01-16T01:43:43;7.25;;;1.60;;
26702;SDS011;14316;51.074;3.704;2023-01-16T01:46:17;7.53;;;1.70;;
26702;SDS011;14316;51.074;3.704;2023-01-16T01:48:45;4.10;;;1.67;;
26702;SDS011;14316;51.074;3.704;2023-01-16T01:51:25;6.70;;;2.17;;
26702;SDS011;14316;51.074;3.704;2023-01-16T01:53:59;9.40;;;1.80;;
26702;SDS011;14316;51.074;3.704;2023-01-16T01:56:50;7.35;;;2.13;;
26702;SDS011;14316;51.074;3.704;2023-01-16T01:59:25;5.95;;;1.90;;
26702;SDS011;14316;51.074;3.704;2023-01-16T02:01:57;8.10;;;2.00;;
26702;SDS011;14316;51.074;3.704;2023-01-16T02:04:26;9.52;;;2.00;;
26702;SDS011;14316;51.074;3.704;2023-01-16T02:06:57;5.50;;;2.28;;
26702;SDS011;14316;51.074;3.704;2023-01-16T02:09:29;7.57;;;2.30;;
26702;SDS011;14316;51.074;3.704;2023-01-16T02:11:58;7.15;;;1.90;;
26702;SDS011;14316;51.074;3.704;2023-01-16T02:14:33;5.05;;;2.17;;
26702;SDS011;14316;51.074;3.704;2023-01-16T02:19:53;5.63;;;2.03;;
26702;SDS011;14316;51.074;3.704;2023-01-16T02:34:48;8.77;;;2.45;;
26702;SDS011;14316;51.074;3.704;2023-01-16T02:40:24;9.32;;;3.40;;
26702;SDS011;14316;51.074;3.704;2023-01-16T02:43:14;10.02;;;2.72;;
26702;SDS011;14316;51.074;3.704;2023-01-16T02:51:58;10.93;;;2.80;;
26702;SDS011;14316;51.074;3.704;2023-01-16T02:54:32;9.60;;;3.15;;
26702;SDS011;14316;51.074;3.704;2023-01-16T02:57:18;9.38;;;3.13;;
26702;SDS011;14316;51.074;3.704;2023-01-16T02:59:47;6.00;;;2.53;;
26702;SDS011;14316;51.074;3.704;2023-01-16T03:02:14;12.98;;;2.88;;
26702;SDS011;14316;51.074;3.704;2023-01-16T03:04:47;9.60;;;3.13;;
26702;SDS011;14316;51.074;3.704;2023-01-16T03:07:23;12.57;;;3.13;;
26702;SDS011;14316;51.074;3.704;2023-01-16T03:10:01;12.27;;;2.75;;
26702;SDS011;14316;51.074;3.704;2023-01-16T03:15:41;6.60;;;2.88;;
26702;SDS011;14316;51.074;3.704;2023-01-16T03:26:20;13.57;;;2.90;;
26702;SDS011;14316;51.074;3.704;2023-01-16T03:36:46;12.45;;;3.50;;
26702;SDS011;14316;51.074;3.704;2023-01-16T03:39:26;7.53;;;3.15;;
26702;SDS011;14316;51.074;3.704;2023-01-16T03:42:01;11.05;;;2.95;;
26702;SDS011;14316;51.074;3.704;2023-01-16T03:44:32;8.68;;;2.70;;
26702;SDS011;14316;51.074;3.704;2023-01-16T03:47:03;8.77;;;2.60;;
26702;SDS011;14316;51.074;3.704;2023-01-16T03:49:36;9.70;;;2.65;;
26702;SDS011;14316;51.074;3.704;2023-01-16T03:52:06;8.10;;;2.88;;
26702;SDS011;14316;51.074;3.704;2023-01-16T03:54:42;12.18;;;2.70;;
26702;SDS011;14316;51.074;3.704;2023-01-16T03:57:32;13.57;;;3.88;;
26702;SDS011;14316;51.074;3.704;2023-01-16T04:00:03;23.20;;;3.00;;
26702;SDS011;14316;51.074;3.704;2023-01-16T04:02:32;11.10;;;2.80;;
26702;SDS011;14316;51.074;3.704;2023-01-16T04:05:11;14.10;;;2.85;;
26702;SDS011;14316;51.074;3.704;2023-01-16T04:07:45;9.93;;;2.13;;
26702;SDS011;14316;51.074;3.704;2023-01-16T04:10:15;12.18;;;2.60;;
26702;SDS011;14316;51.074;3.704;2023-01-16T04:12:47;9.60;;;3.60;;
26702;SDS011;14316;51.074;3.704;2023-01-16T04:15:26;12.18;;;2.75;;
26702;SDS011;14316;51.074;3.704;2023-01-16T04:17:55;11.25;;;2.97;;
26702;SDS011;14316;51.074;3.704;2023-01-16T04:20:22;10.38;;;3.10;;
26702;SDS011;14316;51.074;3.704;2023-01-16T04:22:50;9.82;;;2.97;;
26702;SDS011;14316;51.074;3.704;2023-01-16T04:25:17;12.43;;;2.40;;
26702;SDS011;14316;51.074;3.704;2023-01-16T04:27:44;9.63;;;3.22;;
26702;SDS011;14316;51.074;3.704;2023-01-16T04:30:10;15.32;;;2.97;;
26702;SDS011;14316;51.074;3.704;2023-01-16T04:32:37;7.25;;;2.40;;
26702;SDS011;14316;51.074;3.704;2023-01-16T04:35:03;9.30;;;2.47;;
26702;SDS011;14316;51.074;3.704;2023-01-16T04:37:30;11.80;;;2.50;;
26702;SDS011;14316;51.074;3.704;2023-01-16T04:39:56;11.52;;;2.20;;
26702;SDS011;14316;51.074;3.704;2023-01-16T04:42:24;8.75;;;2.95;;
26702;SDS011;14316;51.074;3.704;2023-01-16T04:44:50;11.73;;;2.75;;
26702;SDS011;14316;51.074;3.704;2023-01-16T04:47:16;8.70;;;2.13;;
26702;SDS011;14316;51.074;3.704;2023-01-16T04:49:42;10.05;;;2.22;;
26702;SDS011;14316;51.074;3.704;2023-01-16T04:52:08;4.80;;;2.10;;
26702;SDS011;14316;51.074;3.704;2023-01-16T04:54:36;8.73;;;2.22;;
26702;SDS011;14316;51.074;3.704;2023-01-16T04:57:02;10.48;;;2.58;;
26702;SDS011;14316;51.074;3.704;2023-01-16T04:59:28;8.57;;;2.10;;
26702;SDS011;14316;51.074;3.704;2023-01-16T05:01:54;9.68;;;1.95;;
26702;SDS011;14316;51.074;3.704;2023-01-16T05:04:21;10.88;;;2.03;;
26702;SDS011;14316;51.074;3.704;2023-01-16T05:06:47;12.30;;;2.17;;
26702;SDS011;14316;51.074;3.704;2023-01-16T05:09:13;9.90;;;2.17;;
26702;SDS011;14316;51.074;3.704;2023-01-16T05:11:39;9.15;;;2.53;;
26702;SDS011;14316;51.074;3.704;2023-01-16T05:14:05;6.47;;;2.15;;
26702;SDS011;14316;51.074;3.704;2023-01-16T05:16:36;7.38;;;2.22;;
26702;SDS011;14316;51.074;3.704;2023-01-16T05:19:03;7.82;;;2.25;;
26702;SDS011;14316;51.074;3.704;2023-01-16T05:21:29;5.97;;;1.73;;
26702;SDS011;14316;51.074;3.704;2023-01-16T05:23:56;6.78;;;2.03;;
26702;SDS011;14316;51.074;3.704;2023-01-16T05:26:22;7.57;;;1.85;;
26702;SDS011;14316;51.074;3.704;2023-01-16T05:28:49;7.90;;;1.90;;
26702;SDS011;14316;51.074;3.704;2023-01-16T05:31:15;8.05;;;1.90;;
26702;SDS011;14316;51.074;3.704;2023-01-16T05:33:41;11.15;;;1.65;;
26702;SDS011;14316;51.074;3.704;2023-01-16T05:36:07;6.30;;;1.70;;
26702;SDS011;14316;51.074;3.704;2023-01-16T05:38:34;10.63;;;1.95;;
26702;SDS011;14316;51.074;3.704;2023-01-16T05:41:00;7.55;;;1.55;;
26702;SDS011;14316;51.074;3.704;2023-01-16T05:43:30;8.65;;;2.40;;
26702;SDS011;14316;51.074;3.704;2023-01-16T05:45:56;5.35;;;1.67;;
26702;SDS011;14316;51.074;3.704;2023-01-16T05:48:22;6.65;;;1.70;;
26702;SDS011;14316;51.074;3.704;2023-01-16T05:50:49;9.38;;;1.60;;
26702;SDS011;14316;51.074;3.704;2023-01-16T05:53:15;6.63;;;1.70;;
26702;SDS011;14316;51.074;3.704;2023-01-16T05:55:42;5.22;;;1.60;;
26702;SDS011;14316;51.074;3.704;2023-01-16T05:58:09;5.38;;;1.40;;
26702;SDS011;14316;51.074;3.704;2023-01-16T06:00:36;4.13;;;1.60;;
26702;SDS011;14316;51.074;3.704;2023-01-16T06:03:04;4.95;;;1.50;;
26702;SDS011;14316;51.074;3.704;2023-01-16T06:05:31;5.03;;;1.27;;
26702;SDS011;14316;51.074;3.704;2023-01-16T06:07:57;3.00;;;1.10;;
26702;SDS011;14316;51.074;3.704;2023-01-16T06:10:23;4.20;;;1.35;;
26702;SDS011;14316;51.074;3.704;2023-01-16T06:12:49;3.88;;;1.00;;
26702;SDS011;14316;51.074;3.704;2023-01-16T06:15:16;4.43;;;1.20;;
26702;SDS011;14316;51.074;3.704;2023-01-16T06:17:42;3.20;;;1.02;;
26702;SDS011;14316;51.074;3.704;2023-01-16T06:20:09;2.63;;;1.00;;
26702;SDS011;14316;51.074;3.704;2023-01-16T06:22:35;2.25;;;0.80;;
26702;SDS011;14316;51.074;3.704;2023-01-16T06:25:01;3.83;;;0.95;;
26702;SDS011;14316;51.074;3.704;2023-01-16T06:27:28;1.33;;;0.77;;
26702;SDS011;14316;51.074;3.704;2023-01-16T06:29:55;3.03;;;1.00;;
26702;SDS011;14316;51.074;3.704;2023-01-16T06:32:21;3.30;;;0.88;;
26702;SDS011;14316;51.074;3.704;2023-01-16T06:34:46;2.22;;;0.90;;
26702;SDS011;14316;51.074;3.704;2023-01-16T06:37:12;2.72;;;1.00;;
26702;SDS011;14316;51.074;3.704;2023-01-16T06:39:39;1.70;;;0.90;;
26702;SDS011;14316;51.074;3.704;2023-01-16T06:42:05;3.15;;;1.08;;
26702;SDS011;14316;51.074;3.704;2023-01-16T06:44:31;2.85;;;1.20;;
26702;SDS011;14316;51.074;3.704;2023-01-16T06:46:58;1.88;;;1.00;;
26702;SDS011;14316;51.074;3.704;2023-01-16T06:49:25;2.08;;;1.00;;
26702;SDS011;14316;51.074;3.704;2023-01-16T06:51:51;2.35;;;1.10;;
26702;SDS011;14316;51.074;3.704;2023-01-16T06:54:18;1.42;;;1.27;;
26702;SDS011;14316;51.074;3.704;2023-01-16T06:56:44;1.52;;;1.13;;
26702;SDS011;14316;51.074;3.704;2023-01-16T06:59:10;1.30;;;1.20;;
26702;SDS011;14316;51.074;3.704;2023-01-16T07:01:36;4.78;;;1.60;;
26702;SDS011;14316;51.074;3.704;2023-01-16T07:04:02;4.47;;;1.30;;
26702;SDS011;14316;51.074;3.704;2023-01-16T07:06:29;1.35;;;1.10;;
26702;SDS011;14316;51.074;3.704;2023-01-16T07:08:55;1.45;;;1.20;;
26702;SDS011;14316;51.074;3.704;2023-01-16T07:11:21;2.72;;;1.20;;
26702;SDS011;14316;51.074;3.704;2023-01-16T07:13:46;1.77;;;1.23;;
26702;SDS011;14316;51.074;3.704;2023-01-16T07:16:14;1.20;;;1.10;;
26702;SDS011;14316;51.074;3.704;2023-01-16T07:18:59;1.48;;;1.30;;
26702;SDS011;14316;51.074;3.704;2023-01-16T07:21:44;6.13;;;3.13;;
26702;SDS011;14316;51.074;3.704;2023-01-16T07:24:31;11.00;;;4.63;;
26702;SDS011;14316;51.074;3.704;2023-01-16T07:27:01;1.23;;;1.13;;
26702;SDS011;14316;51.074;3.704;2023-01-16T07:29:29;3.42;;;1.40;;
26702;SDS011;14316;51.074;3.704;2023-01-16T07:31:57;3.40;;;2.33;;
26702;SDS011;14316;51.074;3.704;2023-01-16T07:34:24;2.45;;;1.48;;
26702;SDS011;14316;51.074;3.704;2023-01-16T07:36:51;1.85;;;1.10;;
26702;SDS011;14316;51.074;3.704;2023-01-16T07:39:17;1.88;;;1.00;;
26702;SDS011;14316;51.074;3.704;2023-01-16T07:41:43;2.38;;;0.98;;
26702;SDS011;14316;51.074;3.704;2023-01-16T07:44:09;2.10;;;1.00;;
26702;SDS011;14316;51.074;3.704;2023-01-16T07:46:35;4.93;;;2.70;;
26702;SDS011;14316;51.074;3.704;2023-01-16T07:49:01;2.42;;;1.70;;
26702;SDS011;14316;51.074;3.704;2023-01-16T07:51:28;2.10;;;1.20;;
26702;SDS011;14316;51.074;3.704;2023-01-16T07:53:53;3.95;;;0.93;;
26702;SDS011;14316;51.074;3.704;2023-01-16T07:56:20;2.13;;;1.00;;
26702;SDS011;14316;51.074;3.704;2023-01-16T07:58:46;2.20;;;1.15;;
26702;SDS011;14316;51.074;3.704;2023-01-16T08:01:14;2.10;;;0.90;;
26702;SDS011;14316;51.074;3.704;2023-01-16T08:03:41;1.52;;;1.00;;
26702;SDS011;14316;51.074;3.704;2023-01-16T08:06:07;2.80;;;1.27;;
26702;SDS011;14316;51.074;3.704;2023-01-16T08:08:33;2.42;;;1.00;;
26702;SDS011;14316;51.074;3.704;2023-01-16T08:11:00;2.38;;;1.00;;
26702;SDS011;14316;51.074;3.704;2023-01-16T08:13:46;3.70;;;1.70;;
26702;SDS011;14316;51.074;3.704;2023-01-16T08:16:12;3.70;;;2.50;;
26702;SDS011;14316;51.074;3.704;2023-01-16T08:18:39;1.42;;;1.20;;
26702;SDS011;14316;51.074;3.704;2023-01-16T08:21:04;1.92;;;0.93;;
26702;SDS011;14316;51.074;3.704;2023-01-16T08:23:30;2.50;;;0.98;;
26702;SDS011;14316;51.074;3.704;2023-01-16T08:25:56;2.70;;;1.10;;
26702;SDS011;14316;51.074;3.704;2023-01-16T08:28:25;3.03;;;1.00;;
26702;SDS011;14316;51.074;3.704;2023-01-16T08:30:52;2.03;;;1.00;;
26702;SDS011;14316;51.074;3.704;2023-01-16T08:33:18;2.95;;;1.05;;
26702;SDS011;14316;51.074;3.704;2023-01-16T08:35:43;2.30;;;1.23;;
26702;SDS011;14316;51.074;3.704;2023-01-16T08:38:09;4.90;;;2.67;;
26702;SDS011;14316;51.074;3.704;2023-01-16T08:40:36;2.80;;;1.40;;
26702;SDS011;14316;51.074;3.704;2023-01-16T08:43:02;1.77;;;1.27;;
26702;SDS011;14316;51.074;3.704;2023-01-16T08:45:46;2.13;;;1.50;;
26702;SDS011;14316;51.074;3.704;2023-01-16T08:48:30;5.35;;;1.42;;
26702;SDS011;14316;51.074;3.704;2023-01-16T08:51:16;4.10;;;1.27;;
26702;SDS011;14316;51.074;3.704;2023-01-16T08:53:54;2.83;;;1.15;;
26702;SDS011;14316;51.074;3.704;2023-01-16T08:56:22;2.95;;;1.20;;
26702;SDS011;14316;51.074;3.704;2023-01-16T08:58:48;5.07;;;2.03;;
26702;SDS011;14316;51.074;3.704;2023-01-16T09:01:14;2.30;;;1.20;;
26702;SDS011;14316;51.074;3.704;2023-01-16T09:03:41;2.45;;;1.42;;
26702;SDS011;14316;51.074;3.704;2023-01-16T09:06:08;2.78;;;1.15;;
26702;SDS011;14316;51.074;3.704;2023-01-16T09:08:34;0.88;;;0.80;;
26702;SDS011;14316;51.074;3.704;2023-01-16T09:11:00;2.58;;;1.20;;
26702;SDS011;14316;51.074;3.704;2023-01-16T09:13:44;4.18;;;1.20;;
26702;SDS011;14316;51.074;3.704;2023-01-16T09:16:16;3.28;;;1.20;;
26702;SDS011;14316;51.074;3.704;2023-01-16T09:18:43;2.33;;;1.05;;
26702;SDS011;14316;51.074;3.704;2023-01-16T09:21:09;3.83;;;1.30;;
26702;SDS011;14316;51.074;3.704;2023-01-16T09:23:35;3.53;;;1.17;;
26702;SDS011;14316;51.074;3.704;2023-01-16T09:26:01;4.07;;;2.20;;
26702;SDS011;14316;51.074;3.704;2023-01-16T09:28:27;2.60;;;1.48;;
26702;SDS011;14316;51.074;3.704;2023-01-16T09:30:54;1.83;;;1.02;;
26702;SDS011;14316;51.074;3.704;2023-01-16T09:33:20;1.67;;;1.05;;
26702;SDS011;14316;51.074;3.704;2023-01-16T09:35:46;5.13;;;1.30;;
26702;SDS011;14316;51.074;3.704;2023-01-16T09:38:11;3.38;;;1.35;;
26702;SDS011;14316;51.074;3.704;2023-01-16T09:40:37;3.97;;;1.60;;
26702;SDS011;14316;51.074;3.704;2023-01-16T09:46:17;4.18;;;1.70;;
26702;SDS011;14316;51.074;3.704;2023-01-16T09:48:51;2.95;;;1.33;;
26702;SDS011;14316;51.074;3.704;2023-01-16T09:51:36;1.35;;;0.88;;
26702;SDS011;14316;51.074;3.704;2023-01-16T09:54:29;2.95;;;0.75;;
26702;SDS011;14316;51.074;3.704;2023-01-16T09:57:19;1.55;;;0.80;;
26702;SDS011;14316;51.074;3.704;2023-01-16T10:00:04;1.52;;;0.77;;
26702;SDS011;14316;51.074;3.704;2023-01-16T10:02:31;1.15;;;0.82;;
26702;SDS011;14316;51.074;3.704;2023-01-16T10:05:00;1.65;;;0.77;;
26702;SDS011;14316;51.074;3.704;2023-01-16T10:28:56;0.95;;;0.75;;
26702;SDS011;14316;51.074;3.704;2023-01-16T10:31:42;1.52;;;1.05;;
26702;SDS011;14316;51.074;3.704;2023-01-16T10:36:47;2.78;;;1.30;;
26702;SDS011;14316;51.074;3.704;2023-01-16T10:39:17;2.40;;;1.60;;
26702;SDS011;14316;51.074;3.704;2023-01-16T10:41:53;2.03;;;1.50;;
26702;SDS011;14316;51.074;3.704;2023-01-16T10:45:10;2.13;;;1.38;;
26702;SDS011;14316;51.074;3.704;2023-01-16T10:48:08;2.25;;;0.98;;
26702;SDS011;14316;51.074;3.704;2023-01-16T10:50:55;1.67;;;1.05;;
26702;SDS011;14316;51.074;3.704;2023-01-16T10:53:23;1.00;;;0.70;;
26702;SDS011;14316;51.074;3.704;2023-01-16T10:55:50;0.73;;;0.73;;
26702;SDS011;14316;51.074;3.704;2023-01-16T11:00:43;1.20;;;1.10;;
26702;SDS011;14316;51.074;3.704;2023-01-16T11:05:46;1.88;;;1.20;;
26702;SDS011;14316;51.074;3.704;2023-01-16T11:08:14;2.75;;;1.50;;
26702;SDS011;14316;51.074;3.704;2023-01-16T11:10:43;2.65;;;2.13;;
26702;SDS011;14316;51.074;3.704;2023-01-16T11:13:15;3.22;;;2.10;;
26702;SDS011;14316;51.074;3.704;2023-01-16T11:18:55;1.38;;;1.10;;
26702;SDS011;14316;51.074;3.704;2023-01-16T11:21:39;2.30;;;1.40;;
26702;SDS011;14316;51.074;3.704;2023-01-16T11:24:15;2.10;;;1.38;;
26702;SDS011;14316;51.074;3.704;2023-01-16T11:26:46;1.73;;;1.42;;
26702;SDS011;14316;51.074;3.704;2023-01-16T11:29:16;1.10;;;1.00;;
26702;SDS011;14316;51.074;3.704;2023-01-16T11:31:52;2.30;;;1.60;;
26702;SDS011;14316;51.074;3.704;2023-01-16T11:34:21;4.10;;;3.20;;
26702;SDS011;14316;51.074;3.704;2023-01-16T11:36:56;2.53;;;1.40;;
26702;SDS011;14316;51.074;3.704;2023-01-16T11:39:24;1.80;;;1.05;;
26702;SDS011;14316;51.074;3.704;2023-01-16T11:41:54;1.58;;;1.27;;
26702;SDS011;14316;51.074;3.704;2023-01-16T11:44:28;1.55;;;1.00;;
26702;SDS011;14316;51.074;3.704;2023-01-16T11:47:17;1.65;;;1.30;;
26702;SDS011;14316;51.074;3.704;2023-01-16T11:49:51;1.52;;;1.00;;
26702;SDS011;14316;51.074;3.704;2023-01-16T11:52:19;1.52;;;1.10;;
26702;SDS011;14316;51.074;3.704;2023-01-16T11:54:53;0.98;;;0.93;;
26702;SDS011;14316;51.074;3.704;2023-01-16T12:08:08;2.15;;;1.50;;
26702;SDS011;14316;51.074;3.704;2023-01-16T12:11:06;4.30;;;1.52;;
26702;SDS011;14316;51.074;3.704;2023-01-16T12:19:37;3.08;;;1.30;;
26702;SDS011;14316;51.074;3.704;2023-01-16T12:25:17;2.72;;;1.70;;
26702;SDS011;14316;51.074;3.704;2023-01-16T12:42:41;3.97;;;2.47;;
26702;SDS011;14316;51.074;3.704;2023-01-16T12:48:18;4.47;;;2.30;;
26702;SDS011;14316;51.074;3.704;2023-01-16T12:54:14;3.78;;;2.03;;
26702;SDS011;14316;51.074;3.704;2023-01-16T13:00:06;6.28;;;2.42;;
26702;SDS011;14316;51.074;3.704;2023-01-16T13:02:46;3.88;;;1.63;;
26702;SDS011;14316;51.074;3.704;2023-01-16T13:05:30;4.55;;;2.28;;
26702;SDS011;14316;51.074;3.704;2023-01-16T13:08:06;3.30;;;1.67;;
26702;SDS011;14316;51.074;3.704;2023-01-16T13:10:43;3.58;;;1.92;;
26702;SDS011;14316;51.074;3.704;2023-01-16T13:13:35;2.40;;;2.20;;
26702;SDS011;14316;51.074;3.704;2023-01-16T13:16:17;7.20;;;2.60;;
26702;SDS011;14316;51.074;3.704;2023-01-16T13:18:54;6.18;;;2.45;;
26702;SDS011;14316;51.074;3.704;2023-01-16T13:21:28;3.78;;;2.58;;
26702;SDS011;14316;51.074;3.704;2023-01-16T13:24:01;6.63;;;2.90;;
26702;SDS011;14316;51.074;3.704;2023-01-16T13:26:35;4.43;;;3.38;;
26702;SDS011;14316;51.074;3.704;2023-01-16T13:34:04;3.23;;;2.60;;
26702;SDS011;14316;51.074;3.704;2023-01-16T13:42:09;2.55;;;2.35;;
26702;SDS011;14316;51.074;3.704;2023-01-16T13:44:39;3.22;;;2.70;;
26702;SDS011;14316;51.074;3.704;2023-01-16T13:47:26;3.00;;;2.20;;
26702;SDS011;14316;51.074;3.704;2023-01-16T13:50:03;2.33;;;2.13;;
26702;SDS011;14316;51.074;3.704;2023-01-16T13:52:41;4.10;;;2.05;;
26702;SDS011;14316;51.074;3.704;2023-01-16T13:55:20;5.38;;;2.67;;
26702;SDS011;14316;51.074;3.704;2023-01-16T14:00:58;3.55;;;3.08;;
26702;SDS011;14316;51.074;3.704;2023-01-16T14:03:30;3.75;;;3.08;;
26702;SDS011;14316;51.074;3.704;2023-01-16T14:06:35;4.13;;;2.90;;
26702;SDS011;14316;51.074;3.704;2023-01-16T14:17:09;5.22;;;4.00;;
26702;SDS011;14316;51.074;3.704;2023-01-16T14:19:37;5.60;;;4.30;;
26702;SDS011;14316;51.074;3.704;2023-01-16T14:22:17;5.78;;;4.75;;
26702;SDS011;14316;51.074;3.704;2023-01-16T14:25:02;3.85;;;3.40;;
26702;SDS011;14316;51.074;3.704;2023-01-16T14:27:34;2.28;;;1.75;;
26702;SDS011;14316;51.074;3.704;2023-01-16T14:30:04;2.05;;;1.80;;
26702;SDS011;14316;51.074;3.704;2023-01-16T14:32:54;2.85;;;1.50;;
26702;SDS011;14316;51.074;3.704;2023-01-16T14:35:31;1.70;;;1.35;;
26702;SDS011;14316;51.074;3.704;2023-01-16T14:38:26;1.13;;;0.85;;
26702;SDS011;14316;51.074;3.704;2023-01-16T14:41:00;2.05;;;1.40;;
26702;SDS011;14316;51.074;3.704;2023-01-16T14:50:04;2.08;;;1.85;;
26702;SDS011;14316;51.074;3.704;2023-01-16T15:00:55;4.82;;;2.88;;
26702;SDS011;14316;51.074;3.704;2023-01-16T15:03:42;3.72;;;2.80;;
26702;SDS011;14316;51.074;3.704;2023-01-16T15:06:10;3.97;;;2.40;;
26702;SDS011;14316;51.074;3.704;2023-01-16T15:08:41;2.70;;;1.80;;
26702;SDS011;14316;51.074;3.704;2023-01-16T15:11:31;8.73;;;1.52;;
26702;SDS011;14316;51.074;3.704;2023-01-16T15:14:13;5.00;;;1.30;;
26702;SDS011;14316;51.074;3.704;2023-01-16T15:17:02;4.43;;;1.15;;
26702;SDS011;14316;51.074;3.704;2023-01-16T15:19:58;5.90;;;1.60;;
26702;SDS011;14316;51.074;3.704;2023-01-16T15:23:04;6.25;;;1.52;;
26702;SDS011;14316;51.074;3.704;2023-01-16T15:31:20;5.47;;;1.45;;
26702;SDS011;14316;51.074;3.704;2023-01-16T15:36:41;3.05;;;1.20;;
26702;SDS011;14316;51.074;3.704;2023-01-16T15:42:03;4.15;;;1.80;;
26702;SDS011;14316;51.074;3.704;2023-01-16T15:44:49;4.32;;;2.03;;
26702;SDS011;14316;51.074;3.704;2023-01-16T15:53:15;5.43;;;1.60;;
26702;SDS011;14316;51.074;3.704;2023-01-16T15:55:43;9.10;;;1.70;;
26702;SDS011;14316;51.074;3.704;2023-01-16T15:58:13;5.10;;;1.20;;
26702;SDS011;14316;51.074;3.704;2023-01-16T16:00:41;5.68;;;1.27;;
26702;SDS011;14316;51.074;3.704;2023-01-16T16:05:41;5.90;;;1.13;;
26702;SDS011;14316;51.074;3.704;2023-01-16T16:08:11;5.32;;;1.20;;
26702;SDS011;14316;51.074;3.704;2023-01-16T16:10:41;2.03;;;0.87;;
26702;SDS011;14316;51.074;3.704;2023-01-16T16:13:26;3.90;;;1.20;;
26702;SDS011;14316;51.074;3.704;2023-01-16T16:15:54;3.47;;;1.48;;
26702;SDS011;14316;51.074;3.704;2023-01-16T16:18:50;3.47;;;1.40;;
26702;SDS011;14316;51.074;3.704;2023-01-16T16:21:41;3.85;;;1.50;;
26702;SDS011;14316;51.074;3.704;2023-01-16T16:24:51;7.43;;;3.08;;
26702;SDS011;14316;51.074;3.704;2023-01-16T16:27:18;8.50;;;3.55;;
26702;SDS011;14316;51.074;3.704;2023-01-16T16:29:49;6.55;;;1.95;;
26702;SDS011;14316;51.074;3.704;2023-01-16T16:34:53;5.30;;;2.38;;
26702;SDS011;14316;51.074;3.704;2023-01-16T16:37:22;6.03;;;2.05;;
26702;SDS011;14316;51.074;3.704;2023-01-16T16:45:06;3.72;;;1.30;;
26702;SDS011;14316;51.074;3.704;2023-01-16T16:47:40;0.73;;;0.73;;
26702;SDS011;14316;51.074;3.704;2023-01-16T16:53:09;2.78;;;1.20;;
26702;SDS011;14316;51.074;3.704;2023-01-16T16:55:46;3.95;;;1.85;;
26702;SDS011;14316;51.074;3.704;2023-01-16T16:58:15;4.55;;;1.48;;
26702;SDS011;14316;51.074;3.704;2023-01-16T17:00:49;3.20;;;1.70;;
26702;SDS011;14316;51.074;3.704;2023-01-16T17:03:24;4.20;;;1.40;;
26702;SDS011;14316;51.074;3.704;2023-01-16T17:05:53;4.32;;;1.50;;
26702;SDS011;14316;51.074;3.704;2023-01-16T17:08:23;6.43;;;1.83;;
26702;SDS011;14316;51.074;3.704;2023-01-16T17:10:54;5.53;;;2.13;;
26702;SDS011;14316;51.074;3.704;2023-01-16T17:13:21;5.60;;;2.22;;
26702;SDS011;14316;51.074;3.704;2023-01-16T17:15:50;6.45;;;2.35;;
26702;SDS011;14316;51.074;3.704;2023-01-16T17:18:19;6.90;;;2.80;;
26702;SDS011;14316;51.074;3.704;2023-01-16T17:20:47;6.97;;;1.95;;
26702;SDS011;14316;51.074;3.704;2023-01-16T17:23:14;7.00;;;2.20;;
26702;SDS011;14316;51.074;3.704;2023-01-16T17:25:42;4.68;;;2.28;;
26702;SDS011;14316;51.074;3.704;2023-01-16T17:28:09;7.78;;;3.17;;
26702;SDS011;14316;51.074;3.704;2023-01-16T17:30:36;6.60;;;3.63;;
26702;SDS011;14316;51.074;3.704;2023-01-16T17:35:41;12.65;;;2.88;;
26702;SDS011;14316;51.074;3.704;2023-01-16T17:38:13;15.35;;;3.60;;
26702;SDS011;14316;51.074;3.704;2023-01-16T17:40:56;14.70;;;2.60;;
26702;SDS011;14316;51.074;3.704;2023-01-16T17:43:22;8.75;;;2.50;;
26702;SDS011;14316;51.074;3.704;2023-01-16T17:46:08;12.35;;;2.28;;
26702;SDS011;14316;51.074;3.704;2023-01-16T17:48:42;9.50;;;1.75;;
26702;SDS011;14316;51.074;3.704;2023-01-16T17:51:09;5.85;;;2.00;;
26702;SDS011;14316;51.074;3.704;2023-01-16T17:53:35;10.57;;;2.20;;
26702;SDS011;14316;51.074;3.704;2023-01-16T17:56:03;4.35;;;1.13;;
26702;SDS011;14316;51.074;3.704;2023-01-16T17:58:37;8.52;;;2.80;;
26702;SDS011;14316;51.074;3.704;2023-01-16T18:01:11;8.13;;;2.40;;
26702;SDS011;14316;51.074;3.704;2023-01-16T18:03:52;7.53;;;2.10;;
26702;SDS011;14316;51.074;3.704;2023-01-16T18:06:36;9.73;;;2.40;;
26702;SDS011;14316;51.074;3.704;2023-01-16T18:09:03;3.70;;;1.52;;
26702;SDS011;14316;51.074;3.704;2023-01-16T18:11:35;8.23;;;2.20;;
26702;SDS011;14316;51.074;3.704;2023-01-16T18:14:22;2.83;;;1.83;;
26702;SDS011;14316;51.074;3.704;2023-01-16T18:17:11;11.43;;;2.28;;
26702;SDS011;14316;51.074;3.704;2023-01-16T18:19:55;4.45;;;2.00;;
26702;SDS011;14316;51.074;3.704;2023-01-16T18:23:10;2.17;;;1.02;;
26702;SDS011;14316;51.074;3.704;2023-01-16T18:25:38;7.70;;;2.13;;